sensor_id;sensor_type;location;lat;lon;timestamp;pressure;altitude;pressure_sealevel;temperature;humidity
77452;BME280;66537;52.370;4.832;2023-04-19T00:02:21;102934.50;;;8.82;73.08
77452;BME280;66537;52.370;4.832;2023-04-19T00:04:46;102936.28;;;8.84;72.96
77452;BME280;66537;52.370;4.832;2023-04-19T00:07:12;102932.97;;;8.96;72.91
77452;BME280;66537;52.370;4.832;2023-04-19T00:09:38;102938.06;;;8.90;73.27
77452;BME280;66537;52.370;4.832;2023-04-19T00:12:03;102933.69;;;8.84;73.45
77452;BME280;66537;52.370;4.832;2023-04-19T00:14:28;102935.50;;;8.91;73.87
77452;BME280;66537;52.370;4.832;2023-04-19T00:16:54;102933.63;;;8.78;74.07
77452;BME280;66537;52.370;4.832;2023-04-19T00:19:19;102931.84;;;8.73;74.14
77452;BME280;66537;52.370;4.832;2023-04-19T00:21:45;102932.69;;;8.73;74.35
77452;BME280;66537;52.370;4.832;2023-04-19T00:24:11;102937.03;;;8.76;74.07
77452;BME280;66537;52.370;4.832;2023-04-19T00:26:37;102928.47;;;8.80;74.20
77452;BME280;66537;52.370;4.832;2023-04-19T00:29:02;102934.28;;;8.64;74.49
77452;BME280;66537;52.370;4.832;2023-04-19T00:31:27;102923.97;;;8.64;75.25
77452;BME280;66537;52.370;4.832;2023-04-19T00:33:52;102921.44;;;8.67;74.87
77452;BME280;66537;52.370;4.832;2023-04-19T00:36:18;102930.91;;;8.69;75.28
77452;BME280;66537;52.370;4.832;2023-04-19T00:38:43;102923.09;;;8.63;75.26
77452;BME280;66537;52.370;4.832;2023-04-19T00:41:08;102920.56;;;8.68;75.79
77452;BME280;66537;52.370;4.832;2023-04-19T00:43:34;102915.41;;;8.68;75.67
77452;BME280;66537;52.370;4.832;2023-04-19T00:45:59;102917.00;;;8.57;76.31
77452;BME280;66537;52.370;4.832;2023-04-19T00:48:24;102914.44;;;8.60;76.58
77452;BME280;66537;52.370;4.832;2023-04-19T00:50:50;102916.13;;;8.58;76.73
77452;BME280;66537;52.370;4.832;2023-04-19T00:53:15;102914.41;;;8.55;76.71
77452;BME280;66537;52.370;4.832;2023-04-19T00:55:41;102920.47;;;8.60;76.69
77452;BME280;66537;52.370;4.832;2023-04-19T00:58:07;102915.25;;;8.56;76.71
77452;BME280;66537;52.370;4.832;2023-04-19T01:00:33;102917.81;;;8.54;77.07
77452;BME280;66537;52.370;4.832;2023-04-19T01:02:59;102916.03;;;8.50;77.09
77452;BME280;66537;52.370;4.832;2023-04-19T01:05:25;102911.78;;;8.54;77.11
77452;BME280;66537;52.370;4.832;2023-04-19T01:07:50;102912.66;;;8.53;77.34
77452;BME280;66537;52.370;4.832;2023-04-19T01:10:16;102913.59;;;8.59;77.26
77452;BME280;66537;52.370;4.832;2023-04-19T01:12:41;102913.47;;;8.49;77.49
77452;BME280;66537;52.370;4.832;2023-04-19T01:15:07;102909.97;;;8.45;78.01
77452;BME280;66537;52.370;4.832;2023-04-19T01:17:33;102908.28;;;8.46;78.12
77452;BME280;66537;52.370;4.832;2023-04-19T01:19:59;102905.72;;;8.50;78.02
77452;BME280;66537;52.370;4.832;2023-04-19T01:22:25;102907.50;;;8.53;77.65
77452;BME280;66537;52.370;4.832;2023-04-19T01:24:51;102906.63;;;8.52;77.78
77452;BME280;66537;52.370;4.832;2023-04-19T01:27:17;102906.59;;;8.51;77.70
77452;BME280;66537;52.370;4.832;2023-04-19T01:29:44;102904.09;;;8.55;77.73
77452;BME280;66537;52.370;4.832;2023-04-19T01:32:09;102910.94;;;8.53;78.04
77452;BME280;66537;52.370;4.832;2023-04-19T01:34:37;102904.00;;;8.48;78.13
77452;BME280;66537;52.370;4.832;2023-04-19T01:37:02;102904.03;;;8.52;77.79
77452;BME280;66537;52.370;4.832;2023-04-19T01:39:27;102900.56;;;8.50;77.96
77452;BME280;66537;52.370;4.832;2023-04-19T01:41:53;102902.22;;;8.44;78.46
77452;BME280;66537;52.370;4.832;2023-04-19T01:44:18;102901.44;;;8.49;78.58
77452;BME280;66537;52.370;4.832;2023-04-19T01:46:44;102897.00;;;8.38;78.94
77452;BME280;66537;52.370;4.832;2023-04-19T01:49:09;102903.75;;;8.31;79.03
77452;BME280;66537;52.370;4.832;2023-04-19T01:54:01;102899.56;;;8.38;78.54
77452;BME280;66537;52.370;4.832;2023-04-19T01:56:26;102907.41;;;8.47;78.65
77452;BME280;66537;52.370;4.832;2023-04-19T01:58:52;102905.69;;;8.46;78.53
77452;BME280;66537;52.370;4.832;2023-04-19T02:01:17;102903.06;;;8.44;78.74
77452;BME280;66537;52.370;4.832;2023-04-19T02:03:42;102902.28;;;8.50;78.75
77452;BME280;66537;52.370;4.832;2023-04-19T02:06:12;102901.41;;;8.48;78.80
77452;BME280;66537;52.370;4.832;2023-04-19T02:08:41;102905.00;;;8.59;78.19
77452;BME280;66537;52.370;4.832;2023-04-19T02:11:07;102898.03;;;8.53;78.43
77452;BME280;66537;52.370;4.832;2023-04-19T02:13:33;102901.44;;;8.51;78.33
77452;BME280;66537;52.370;4.832;2023-04-19T02:15:59;102896.31;;;8.54;78.60
77452;BME280;66537;52.370;4.832;2023-04-19T02:18:26;102899.84;;;8.62;78.14
77452;BME280;66537;52.370;4.832;2023-04-19T02:20:53;102898.25;;;8.70;78.23
77452;BME280;66537;52.370;4.832;2023-04-19T02:23:19;102905.22;;;8.78;78.24
77452;BME280;66537;52.370;4.832;2023-04-19T02:25:44;102901.84;;;8.82;77.54
77452;BME280;66537;52.370;4.832;2023-04-19T02:28:09;102899.28;;;8.87;77.46
77452;BME280;66537;52.370;4.832;2023-04-19T02:30:35;102900.19;;;8.90;77.62
77452;BME280;66537;52.370;4.832;2023-04-19T02:33:01;102904.59;;;8.97;77.07
77452;BME280;66537;52.370;4.832;2023-04-19T02:35:26;102901.19;;;9.03;77.11
77452;BME280;66537;52.370;4.832;2023-04-19T02:37:51;102906.34;;;9.03;77.20
77452;BME280;66537;52.370;4.832;2023-04-19T02:40:17;102906.41;;;9.07;77.01
77452;BME280;66537;52.370;4.832;2023-04-19T02:42:42;102902.03;;;9.00;77.27
77452;BME280;66537;52.370;4.832;2023-04-19T02:45:08;102918.38;;;8.98;77.52
77452;BME280;66537;52.370;4.832;2023-04-19T02:47:33;102915.81;;;9.02;77.19
77452;BME280;66537;52.370;4.832;2023-04-19T02:49:59;102913.22;;;9.02;76.97
77452;BME280;66537;52.370;4.832;2023-04-19T02:52:25;102917.63;;;9.11;77.10
77452;BME280;66537;52.370;4.832;2023-04-19T02:54:50;102920.22;;;9.11;76.73
77452;BME280;66537;52.370;4.832;2023-04-19T02:57:16;102921.09;;;9.12;76.97
77452;BME280;66537;52.370;4.832;2023-04-19T02:59:41;102917.72;;;9.19;77.12
77452;BME280;66537;52.370;4.832;2023-04-19T03:02:06;102915.19;;;9.23;76.86
77452;BME280;66537;52.370;4.832;2023-04-19T03:04:32;102918.72;;;9.33;76.05
77452;BME280;66537;52.370;4.832;2023-04-19T03:06:58;102911.84;;;9.36;77.23
77452;BME280;66537;52.370;4.832;2023-04-19T03:09:24;102911.81;;;9.32;77.02
77452;BME280;66537;52.370;4.832;2023-04-19T03:11:49;102902.38;;;9.35;76.93
77452;BME280;66537;52.370;4.832;2023-04-19T03:14:15;102911.00;;;9.37;76.82
77452;BME280;66537;52.370;4.832;2023-04-19T03:16:40;102916.09;;;9.28;77.32
77452;BME280;66537;52.370;4.832;2023-04-19T03:19:06;102912.69;;;9.34;76.54
77452;BME280;66537;52.370;4.832;2023-04-19T03:21:31;102916.06;;;9.27;76.55
77452;BME280;66537;52.370;4.832;2023-04-19T03:23:57;102915.22;;;9.29;77.00
77452;BME280;66537;52.370;4.832;2023-04-19T03:26:22;102910.94;;;9.30;76.91
77452;BME280;66537;52.370;4.832;2023-04-19T03:28:47;102910.91;;;9.27;76.59
77452;BME280;66537;52.370;4.832;2023-04-19T03:31:13;102916.00;;;9.19;76.78
77452;BME280;66537;52.370;4.832;2023-04-19T03:33:38;102910.84;;;9.22;76.84
77452;BME280;66537;52.370;4.832;2023-04-19T03:36:04;102914.31;;;9.21;76.74
77452;BME280;66537;52.370;4.832;2023-04-19T03:38:30;102903.09;;;9.21;76.67
77452;BME280;66537;52.370;4.832;2023-04-19T03:40:55;102910.03;;;9.23;77.10
77452;BME280;66537;52.370;4.832;2023-04-19T03:43:21;102909.13;;;9.21;76.57
77452;BME280;66537;52.370;4.832;2023-04-19T03:45:48;102903.13;;;9.24;77.21
77452;BME280;66537;52.370;4.832;2023-04-19T03:48:13;102915.13;;;9.17;76.80
77452;BME280;66537;52.370;4.832;2023-04-19T03:50:39;102919.47;;;9.21;76.42
77452;BME280;66537;52.370;4.832;2023-04-19T03:53:04;102907.44;;;9.23;76.68
77452;BME280;66537;52.370;4.832;2023-04-19T03:55:30;102912.56;;;9.20;76.38
77452;BME280;66537;52.370;4.832;2023-04-19T03:57:56;102910.84;;;9.24;75.99
77452;BME280;66537;52.370;4.832;2023-04-19T04:00:21;102915.19;;;9.23;76.12
77452;BME280;66537;52.370;4.832;2023-04-19T04:02:46;102907.44;;;9.23;75.79
77452;BME280;66537;52.370;4.832;2023-04-19T04:05:12;102896.97;;;9.11;75.49
77452;BME280;66537;52.370;4.832;2023-04-19T04:07:37;102906.44;;;9.09;75.50
77452;BME280;66537;52.370;4.832;2023-04-19T04:10:03;102902.00;;;8.96;75.89
77452;BME280;66537;52.370;4.832;2023-04-19T04:12:28;102906.22;;;8.92;76.33
77452;BME280;66537;52.370;4.832;2023-04-19T04:14:54;102897.66;;;8.93;76.06
77452;BME280;66537;52.370;4.832;2023-04-19T04:17:19;102901.03;;;8.86;76.43
77452;BME280;66537;52.370;4.832;2023-04-19T04:19:45;102907.09;;;8.90;75.97
77452;BME280;66537;52.370;4.832;2023-04-19T04:22:10;102908.66;;;8.77;76.16
77452;BME280;66537;52.370;4.832;2023-04-19T04:24:39;102904.28;;;8.72;76.76
77452;BME280;66537;52.370;4.832;2023-04-19T04:27:08;102906.03;;;8.74;76.75
77452;BME280;66537;52.370;4.832;2023-04-19T04:29:38;102905.91;;;8.65;76.48
77452;BME280;66537;52.370;4.832;2023-04-19T04:32:07;102914.50;;;8.63;77.00
77452;BME280;66537;52.370;4.832;2023-04-19T04:34:34;102909.28;;;8.60;77.11
77452;BME280;66537;52.370;4.832;2023-04-19T04:37:00;102905.81;;;8.58;76.90
77452;BME280;66537;52.370;4.832;2023-04-19T04:39:27;102913.53;;;8.53;76.95
77452;BME280;66537;52.370;4.832;2023-04-19T04:41:53;102910.88;;;8.49;76.72
77452;BME280;66537;52.370;4.832;2023-04-19T04:44:18;102904.84;;;8.47;76.54
77452;BME280;66537;52.370;4.832;2023-04-19T04:46:45;102900.53;;;8.46;76.38
77452;BME280;66537;52.370;4.832;2023-04-19T04:49:11;102909.97;;;8.45;76.34
77452;BME280;66537;52.370;4.832;2023-04-19T04:51:36;102909.06;;;8.42;76.05
77452;BME280;66537;52.370;4.832;2023-04-19T04:54:02;102900.41;;;8.37;76.15
77452;BME280;66537;52.370;4.832;2023-04-19T04:56:29;102907.22;;;8.33;75.80
77452;BME280;66537;52.370;4.832;2023-04-19T04:58:55;102916.66;;;8.33;75.71
77452;BME280;66537;52.370;4.832;2023-04-19T05:01:21;102908.94;;;8.33;75.27
77452;BME280;66537;52.370;4.832;2023-04-19T05:03:48;102913.19;;;8.29;75.36
77452;BME280;66537;52.370;4.832;2023-04-19T05:06:13;102914.06;;;8.31;74.96
77452;BME280;66537;52.370;4.832;2023-04-19T05:08:38;102918.34;;;8.29;74.91
77452;BME280;66537;52.370;4.832;2023-04-19T05:11:04;102913.28;;;8.35;74.74
77452;BME280;66537;52.370;4.832;2023-04-19T05:13:29;102914.94;;;8.30;73.86
77452;BME280;66537;52.370;4.832;2023-04-19T05:15:54;102914.94;;;8.30;73.80
77452;BME280;66537;52.370;4.832;2023-04-19T05:18:20;102922.69;;;8.33;73.86
77452;BME280;66537;52.370;4.832;2023-04-19T05:20:45;102913.25;;;8.32;73.20
77452;BME280;66537;52.370;4.832;2023-04-19T05:23:11;102924.31;;;8.25;73.33
77452;BME280;66537;52.370;4.832;2023-04-19T05:25:36;102921.69;;;8.23;73.10
77452;BME280;66537;52.370;4.832;2023-04-19T05:28:01;102913.06;;;8.23;72.86
77452;BME280;66537;52.370;4.832;2023-04-19T05:30:27;102919.25;;;8.33;72.42
77452;BME280;66537;52.370;4.832;2023-04-19T05:32:53;102919.34;;;8.40;71.31
77452;BME280;66537;52.370;4.832;2023-04-19T05:35:19;102916.72;;;8.36;71.20
77452;BME280;66537;52.370;4.832;2023-04-19T05:37:44;102912.53;;;8.44;70.45
77452;BME280;66537;52.370;4.832;2023-04-19T05:40:10;102922.88;;;8.45;69.88
77452;BME280;66537;52.370;4.832;2023-04-19T05:42:36;102921.31;;;8.58;69.94
77452;BME280;66537;52.370;4.832;2023-04-19T05:45:01;102922.25;;;8.64;69.84
77452;BME280;66537;52.370;4.832;2023-04-19T05:47:26;102922.19;;;8.60;69.29
77452;BME280;66537;52.370;4.832;2023-04-19T05:49:52;102914.75;;;8.82;68.23
77452;BME280;66537;52.370;4.832;2023-04-19T05:52:17;102920.34;;;9.25;66.99
77452;BME280;66537;52.370;4.832;2023-04-19T05:54:42;102914.34;;;9.27;65.62
77452;BME280;66537;52.370;4.832;2023-04-19T05:57:08;102923.00;;;9.32;65.33
77452;BME280;66537;52.370;4.832;2023-04-19T05:59:34;102916.97;;;9.33;66.00
77452;BME280;66537;52.370;4.832;2023-04-19T06:01:59;102921.13;;;9.18;65.51
77452;BME280;66537;52.370;4.832;2023-04-19T06:04:25;102928.84;;;9.12;65.15
77452;BME280;66537;52.370;4.832;2023-04-19T06:06:51;102927.03;;;9.04;65.75
77452;BME280;66537;52.370;4.832;2023-04-19T06:09:16;102934.59;;;8.89;64.82
77452;BME280;66537;52.370;4.832;2023-04-19T06:11:43;102933.06;;;9.03;64.68
77452;BME280;66537;52.370;4.832;2023-04-19T06:14:09;102935.75;;;9.16;63.34
77452;BME280;66537;52.370;4.832;2023-04-19T06:16:35;102940.16;;;9.26;62.96
77452;BME280;66537;52.370;4.832;2023-04-19T06:19:00;102935.94;;;9.34;62.64
77452;BME280;66537;52.370;4.832;2023-04-19T06:21:31;102945.44;;;9.35;62.71
77452;BME280;66537;52.370;4.832;2023-04-19T06:23:57;102948.03;;;9.39;62.79
77452;BME280;66537;52.370;4.832;2023-04-19T06:26:22;102929.94;;;9.39;62.80
77452;BME280;66537;52.370;4.832;2023-04-19T06:28:48;102941.16;;;9.38;63.23
77452;BME280;66537;52.370;4.832;2023-04-19T06:31:13;102937.56;;;9.26;63.17
77452;BME280;66537;52.370;4.832;2023-04-19T06:33:38;102952.44;;;9.48;63.82
77452;BME280;66537;52.370;4.832;2023-04-19T06:36:04;102947.50;;;9.73;62.34
77452;BME280;66537;52.370;4.832;2023-04-19T06:38:30;102957.41;;;10.32;61.55
77452;BME280;66537;52.370;4.832;2023-04-19T06:40:55;102943.63;;;10.34;59.84
77452;BME280;66537;52.370;4.832;2023-04-19T06:43:20;102941.16;;;10.55;58.81
77452;BME280;66537;52.370;4.832;2023-04-19T06:45:46;102944.69;;;10.71;57.46
77452;BME280;66537;52.370;4.832;2023-04-19T06:48:11;102937.09;;;11.40;55.51
77452;BME280;66537;52.370;4.832;2023-04-19T06:50:37;102944.06;;;11.73;53.29
77452;BME280;66537;52.370;4.832;2023-04-19T06:53:02;102949.16;;;12.39;51.30
77452;BME280;66537;52.370;4.832;2023-04-19T06:55:28;102936.66;;;13.29;48.77
77452;BME280;66537;52.370;4.832;2023-04-19T06:57:53;102944.59;;;13.08;48.90
77452;BME280;66537;52.370;4.832;2023-04-19T07:00:18;102934.72;;;13.58;46.64
77452;BME280;66537;52.370;4.832;2023-04-19T07:02:43;102941.22;;;14.09;46.59
77452;BME280;66537;52.370;4.832;2023-04-19T07:05:09;102943.53;;;15.07;45.04
77452;BME280;66537;52.370;4.832;2023-04-19T07:07:34;102939.53;;;14.82;44.88
77452;BME280;66537;52.370;4.832;2023-04-19T07:10:02;102948.44;;;14.62;43.71
77452;BME280;66537;52.370;4.832;2023-04-19T07:12:27;102945.03;;;14.58;43.34
77452;BME280;66537;52.370;4.832;2023-04-19T07:14:53;102950.47;;;15.07;43.12
77452;BME280;66537;52.370;4.832;2023-04-19T07:17:21;102944.47;;;15.02;42.17
77452;BME280;66537;52.370;4.832;2023-04-19T07:19:47;102948.09;;;14.90;42.48
77452;BME280;66537;52.370;4.832;2023-04-19T07:22:13;102945.03;;;14.57;43.78
77452;BME280;66537;52.370;4.832;2023-04-19T07:24:38;102944.78;;;15.40;41.66
77452;BME280;66537;52.370;4.832;2023-04-19T07:27:06;102947.72;;;15.17;42.69
77452;BME280;66537;52.370;4.832;2023-04-19T07:29:33;102936.78;;;15.54;42.20
77452;BME280;66537;52.370;4.832;2023-04-19T07:31:59;102940.94;;;15.65;41.27
77452;BME280;66537;52.370;4.832;2023-04-19T07:34:26;102930.72;;;15.52;41.63
77452;BME280;66537;52.370;4.832;2023-04-19T07:36:51;102937.44;;;15.07;42.26
77452;BME280;66537;52.370;4.832;2023-04-19T07:39:17;102926.72;;;15.83;40.72
77452;BME280;66537;52.370;4.832;2023-04-19T07:41:43;102926.78;;;15.78;41.41
77452;BME280;66537;52.370;4.832;2023-04-19T07:44:09;102921.97;;;16.03;40.37
77452;BME280;66537;52.370;4.832;2023-04-19T07:46:35;102924.28;;;15.72;41.35
77452;BME280;66537;52.370;4.832;2023-04-19T07:49:01;102925.06;;;15.77;40.97
77452;BME280;66537;52.370;4.832;2023-04-19T07:51:26;102932.19;;;15.11;41.01
77452;BME280;66537;52.370;4.832;2023-04-19T07:53:52;102929.00;;;15.49;40.52
77452;BME280;66537;52.370;4.832;2023-04-19T07:56:17;102931.34;;;16.14;42.69
77452;BME280;66537;52.370;4.832;2023-04-19T07:58:44;102925.50;;;16.89;39.56
77452;BME280;66537;52.370;4.832;2023-04-19T08:01:09;102927.78;;;17.04;39.51
77452;BME280;66537;52.370;4.832;2023-04-19T08:03:35;102936.69;;;16.54;39.13
77452;BME280;66537;52.370;4.832;2023-04-19T08:06:02;102933.75;;;16.69;39.47
77452;BME280;66537;52.370;4.832;2023-04-19T08:08:29;102937.69;;;17.28;37.86
77452;BME280;66537;52.370;4.832;2023-04-19T08:10:55;102940.31;;;16.47;38.82
77452;BME280;66537;52.370;4.832;2023-04-19T08:13:21;102936.47;;;17.04;38.85
77452;BME280;66537;52.370;4.832;2023-04-19T08:15:47;102936.66;;;16.56;38.74
77452;BME280;66537;52.370;4.832;2023-04-19T08:18:12;102945.69;;;16.82;38.35
77452;BME280;66537;52.370;4.832;2023-04-19T08:20:38;102933.56;;;16.80;39.28
77452;BME280;66537;52.370;4.832;2023-04-19T08:23:06;102938.38;;;17.73;37.20
77452;BME280;66537;52.370;4.832;2023-04-19T08:25:33;102925.19;;;18.10;36.68
77452;BME280;66537;52.370;4.832;2023-04-19T08:27:58;102930.75;;;18.60;36.63
77452;BME280;66537;52.370;4.832;2023-04-19T08:30:23;102920.25;;;18.62;36.16
77452;BME280;66537;52.370;4.832;2023-04-19T08:32:49;102925.41;;;18.33;36.30
77452;BME280;66537;52.370;4.832;2023-04-19T08:35:15;102941.44;;;17.55;36.58
77452;BME280;66537;52.370;4.832;2023-04-19T08:37:40;102941.47;;;17.53;36.12
77452;BME280;66537;52.370;4.832;2023-04-19T08:40:06;102945.47;;;16.93;36.75
77452;BME280;66537;52.370;4.832;2023-04-19T08:42:32;102921.03;;;17.67;36.59
77452;BME280;66537;52.370;4.832;2023-04-19T08:45:00;102926.38;;;16.88;36.75
77452;BME280;66537;52.370;4.832;2023-04-19T08:47:27;102924.44;;;17.36;37.04
77452;BME280;66537;52.370;4.832;2023-04-19T08:49:54;102930.38;;;17.77;35.80
77452;BME280;66537;52.370;4.832;2023-04-19T08:52:21;102932.22;;;17.37;36.56
77452;BME280;66537;52.370;4.832;2023-04-19T08:54:48;102930.06;;;17.56;36.59
77452;BME280;66537;52.370;4.832;2023-04-19T08:57:13;102919.34;;;17.98;34.99
77452;BME280;66537;52.370;4.832;2023-04-19T08:59:39;102923.47;;;16.62;36.73
77452;BME280;66537;52.370;4.832;2023-04-19T09:02:04;102923.75;;;16.48;36.96
77452;BME280;66537;52.370;4.832;2023-04-19T09:04:30;102918.56;;;16.44;37.26
77452;BME280;66537;52.370;4.832;2023-04-19T09:06:55;102924.28;;;17.03;35.75
77452;BME280;66537;52.370;4.832;2023-04-19T09:09:23;102923.00;;;16.83;35.72
77452;BME280;66537;52.370;4.832;2023-04-19T09:11:49;102916.59;;;16.58;36.20
77452;BME280;66537;52.370;4.832;2023-04-19T09:14:16;102912.44;;;18.28;34.66
77452;BME280;66537;52.370;4.832;2023-04-19T09:16:43;102914.66;;;18.43;33.87
77452;BME280;66537;52.370;4.832;2023-04-19T09:19:09;102915.00;;;18.62;33.48
77452;BME280;66537;52.370;4.832;2023-04-19T09:21:37;102927.97;;;17.33;33.92
77452;BME280;66537;52.370;4.832;2023-04-19T09:24:03;102920.53;;;17.17;34.59
77452;BME280;66537;52.370;4.832;2023-04-19T09:26:28;102916.13;;;18.21;34.09
77452;BME280;66537;52.370;4.832;2023-04-19T09:29:04;102915.25;;;18.53;33.33
77452;BME280;66537;52.370;4.832;2023-04-19T09:31:33;102918.53;;;18.29;32.98
77452;BME280;66537;52.370;4.832;2023-04-19T09:34:12;102906.47;;;18.22;33.42
77452;BME280;66537;52.370;4.832;2023-04-19T09:36:39;102912.66;;;18.51;33.57
77452;BME280;66537;52.370;4.832;2023-04-19T09:39:05;102913.53;;;17.54;34.53
77452;BME280;66537;52.370;4.832;2023-04-19T09:41:30;102914.13;;;17.65;33.88
77452;BME280;66537;52.370;4.832;2023-04-19T09:44:11;102919.06;;;17.40;35.87
77452;BME280;66537;52.370;4.832;2023-04-19T09:46:40;102903.25;;;17.45;35.49
77452;BME280;66537;52.370;4.832;2023-04-19T09:51:47;102906.25;;;17.66;35.65
77452;BME280;66537;52.370;4.832;2023-04-19T09:54:14;102903.94;;;17.88;34.95
77452;BME280;66537;52.370;4.832;2023-04-19T09:56:40;102904.31;;;17.38;34.42
77452;BME280;66537;52.370;4.832;2023-04-19T09:59:07;102895.38;;;17.46;34.50
77452;BME280;66537;52.370;4.832;2023-04-19T10:01:53;102892.28;;;17.66;34.23
77452;BME280;66537;52.370;4.832;2023-04-19T10:04:20;102895.97;;;17.59;34.55
77452;BME280;66537;52.370;4.832;2023-04-19T10:06:51;102916.47;;;17.75;34.11
77452;BME280;66537;52.370;4.832;2023-04-19T10:09:18;102908.72;;;17.36;34.09
77452;BME280;66537;52.370;4.832;2023-04-19T10:11:51;102901.38;;;16.34;35.04
77452;BME280;66537;52.370;4.832;2023-04-19T10:14:24;102889.38;;;17.06;35.07
77452;BME280;66537;52.370;4.832;2023-04-19T10:16:50;102878.97;;;17.75;34.67
77452;BME280;66537;52.370;4.832;2023-04-19T10:19:19;102899.13;;;17.71;34.39
77452;BME280;66537;52.370;4.832;2023-04-19T10:21:47;102898.03;;;17.45;35.26
77452;BME280;66537;52.370;4.832;2023-04-19T10:24:14;102889.66;;;17.31;35.30
77452;BME280;66537;52.370;4.832;2023-04-19T10:27:11;102905.25;;;16.57;36.00
77452;BME280;66537;52.370;4.832;2023-04-19T10:29:59;102884.34;;;16.59;35.90
77452;BME280;66537;52.370;4.832;2023-04-19T10:32:42;102886.75;;;17.43;35.56
77452;BME280;66537;52.370;4.832;2023-04-19T10:35:34;102883.75;;;17.58;33.54
77452;BME280;66537;52.370;4.832;2023-04-19T10:38:12;102883.63;;;17.64;33.21
77452;BME280;66537;52.370;4.832;2023-04-19T10:43:16;102874.38;;;17.14;34.79
77452;BME280;66537;52.370;4.832;2023-04-19T10:45:42;102852.09;;;17.68;33.62
77452;BME280;66537;52.370;4.832;2023-04-19T10:53:57;102876.72;;;17.61;34.24
77452;BME280;66537;52.370;4.832;2023-04-19T11:01:45;102871.59;;;17.20;33.71
77452;BME280;66537;52.370;4.832;2023-04-19T11:09:27;102849.09;;;17.50;34.24
77452;BME280;66537;52.370;4.832;2023-04-19T11:12:01;102857.47;;;17.96;32.17
77452;BME280;66537;52.370;4.832;2023-04-19T11:14:30;102843.25;;;17.72;32.49
77452;BME280;66537;52.370;4.832;2023-04-19T11:16:56;102846.59;;;17.44;32.72
77452;BME280;66537;52.370;4.832;2023-04-19T11:19:21;102845.69;;;17.11;34.21
77452;BME280;66537;52.370;4.832;2023-04-19T11:21:47;102843.16;;;17.75;34.06
77452;BME280;66537;52.370;4.832;2023-04-19T11:24:14;102832.38;;;17.55;34.20
77452;BME280;66537;52.370;4.832;2023-04-19T11:26:43;102830.34;;;17.66;32.71
77452;BME280;66537;52.370;4.832;2023-04-19T11:29:09;102857.63;;;17.21;32.71
77452;BME280;66537;52.370;4.832;2023-04-19T11:31:35;102822.31;;;17.03;33.16
77452;BME280;66537;52.370;4.832;2023-04-19T11:34:01;102827.44;;;17.08;33.03
77452;BME280;66537;52.370;4.832;2023-04-19T11:36:27;102826.94;;;16.54;33.45
77452;BME280;66537;52.370;4.832;2023-04-19T11:38:52;102831.25;;;16.57;33.33
77452;BME280;66537;52.370;4.832;2023-04-19T11:41:18;102826.38;;;16.80;33.78
77452;BME280;66537;52.370;4.832;2023-04-19T11:43:43;102826.78;;;16.98;32.76
77452;BME280;66537;52.370;4.832;2023-04-19T11:46:13;102817.16;;;16.64;32.51
77452;BME280;66537;52.370;4.832;2023-04-19T11:48:49;102813.16;;;16.46;33.26
77452;BME280;66537;52.370;4.832;2023-04-19T11:51:15;102813.50;;;16.31;32.55
77452;BME280;66537;52.370;4.832;2023-04-19T11:53:41;102822.03;;;16.38;32.94
77452;BME280;66537;52.370;4.832;2023-04-19T11:56:07;102816.34;;;15.76;33.40
77452;BME280;66537;52.370;4.832;2023-04-19T11:58:40;102807.78;;;15.68;34.40
77452;BME280;66537;52.370;4.832;2023-04-19T12:01:12;102801.84;;;16.06;33.69
77452;BME280;66537;52.370;4.832;2023-04-19T12:03:51;102799.53;;;16.32;33.77
77452;BME280;66537;52.370;4.832;2023-04-19T12:08:50;102795.00;;;15.99;33.91
77452;BME280;66537;52.370;4.832;2023-04-19T12:11:18;102781.81;;;15.62;34.10
77452;BME280;66537;52.370;4.832;2023-04-19T12:13:43;102790.44;;;15.67;34.32
77452;BME280;66537;52.370;4.832;2023-04-19T12:16:10;102785.50;;;15.52;34.41
77452;BME280;66537;52.370;4.832;2023-04-19T12:18:49;102786.13;;;15.65;34.89
77452;BME280;66537;52.370;4.832;2023-04-19T12:21:30;102783.19;;;15.81;33.75
77452;BME280;66537;52.370;4.832;2023-04-19T12:23:58;102785.13;;;15.21;33.85
77452;BME280;66537;52.370;4.832;2023-04-19T12:26:25;102782.63;;;15.15;35.60
77452;BME280;66537;52.370;4.832;2023-04-19T12:28:55;102783.03;;;14.91;34.25
77452;BME280;66537;52.370;4.832;2023-04-19T12:31:21;102805.41;;;14.46;35.63
77452;BME280;66537;52.370;4.832;2023-04-19T12:33:47;102799.34;;;14.44;35.08
77452;BME280;66537;52.370;4.832;2023-04-19T12:36:13;102797.66;;;14.40;34.29
77452;BME280;66537;52.370;4.832;2023-04-19T12:38:38;102790.66;;;14.45;35.39
77452;BME280;66537;52.370;4.832;2023-04-19T12:41:04;102791.44;;;14.54;34.44
77452;BME280;66537;52.370;4.832;2023-04-19T12:43:30;102783.69;;;14.46;34.41
77452;BME280;66537;52.370;4.832;2023-04-19T12:45:56;102772.44;;;14.45;34.66
77452;BME280;66537;52.370;4.832;2023-04-19T12:48:22;102787.31;;;14.34;35.70
77452;BME280;66537;52.370;4.832;2023-04-19T12:50:48;102778.47;;;14.49;35.75
77452;BME280;66537;52.370;4.832;2023-04-19T12:53:13;102768.03;;;14.49;35.33
77452;BME280;66537;52.370;4.832;2023-04-19T12:55:38;102776.00;;;14.40;35.55
77452;BME280;66537;52.370;4.832;2023-04-19T12:58:04;102762.91;;;14.43;35.21
77452;BME280;66537;52.370;4.832;2023-04-19T13:00:30;102759.97;;;14.66;35.29
77452;BME280;66537;52.370;4.832;2023-04-19T13:02:55;102766.28;;;14.51;35.85
77452;BME280;66537;52.370;4.832;2023-04-19T13:05:20;102748.91;;;14.50;35.17
77452;BME280;66537;52.370;4.832;2023-04-19T13:07:46;102758.28;;;14.63;35.29
77452;BME280;66537;52.370;4.832;2023-04-19T13:10:11;102749.53;;;14.66;35.15
77452;BME280;66537;52.370;4.832;2023-04-19T13:12:37;102751.50;;;14.50;36.14
77452;BME280;66537;52.370;4.832;2023-04-19T13:15:02;102744.63;;;14.48;35.53
77452;BME280;66537;52.370;4.832;2023-04-19T13:17:28;102745.78;;;14.25;36.15
77452;BME280;66537;52.370;4.832;2023-04-19T13:19:53;102726.81;;;14.16;36.94